Latest Weather Observations for Horn Island

IDQ60801

Issued at 4:32 am EST Friday 27 May 2016 (issued every 30 minutes, with the page automatically refreshed every 10 minutes)

About weather observations | Map of weather stations | Latest weather observations for QLD | Other Formats
Station Details ID: 027058 Name: HORN ISLAND Lat: -10.58 Lon: 142.29 Height: 4.0 m
Data from the previous 72 hours. | See also: Recent months at Horn Island
Date/Time
EST
Temp
°C
App
Temp
°C
Dew
Point
Rel
Hum
%
Delta-T
°C
Wind Press
QNH
hPa
Press
MSL
hPa
Rain
since 9 am
mm
Dir
 
Spd
km/h
Gust
km/h
Spd
kts
Gust
kts
27/04:30am 27.0 30.7 24.6 87 1.7 ESE 13 20 7 11 1012.2 - 0.0
27/04:00am 27.0 31.0 25.0 89 1.4 SE 13 17 7 9 1011.8 - 0.0
27/03:30am 27.0 30.9 24.8 88 1.5 SE 13 19 7 10 1011.8 - 0.0
27/03:08am 27.2 30.6 24.6 86 1.8 ESE 15 20 8 11 1012.0 - 0.0
27/03:00am 27.3 30.8 24.9 87 1.7 ESE 15 20 8 11 1012.0 1012.0 0.0
27/02:49am 27.3 31.2 24.9 87 1.7 ESE 13 17 7 9 1012.0 - 0.0
27/02:30am 27.4 30.5 24.8 86 1.8 ESE 17 24 9 13 1012.0 - 0.0
27/02:29am 27.4 30.5 24.8 86 1.8 ESE 17 24 9 13 1012.0 - 0.0
27/02:02am 27.5 31.2 25.1 87 1.7 ESE 15 20 8 11 1012.2 - 0.0
27/02:00am 27.4 31.0 25.0 87 1.7 ESE 15 20 8 11 1012.3 - 0.0
27/01:56am 27.5 30.8 25.1 87 1.7 ESE 17 26 9 14 1012.3 - 0.0
27/01:30am 27.5 30.7 24.9 86 1.8 ESE 17 22 9 12 1012.6 - 0.0
27/01:00am 27.2 31.3 25.2 89 1.4 ESE 13 17 7 9 1012.7 - 0.0
27/12:55am 27.2 31.3 25.2 89 1.4 ESE 13 17 7 9 1012.8 - 0.0
27/12:30am 27.1 30.8 25.1 89 1.4 ESE 15 19 8 10 1012.7 - 0.0
27/12:00am 26.9 30.8 24.9 89 1.4 ESE 13 19 7 10 1012.7 1012.7 0.0
 
Date/Time
EST
Temp
°C
App
Temp
°C
Dew
Point
Rel
Hum
%
Delta-T
°C
Wind Press
QNH
hPa
Press
MSL
hPa
Rain
since 9 am
mm
Dir
 
Spd
km/h
Gust
km/h
Spd
kts
Gust
kts
26/11:30pm 26.9 30.3 24.7 88 1.5 ESE 15 22 8 12 1012.9 - 0.0
26/11:00pm 26.6 30.2 24.4 88 1.5 ESE 13 17 7 9 1013.0 - 0.0
26/10:30pm 26.7 30.5 24.7 89 1.4 SE 13 20 7 11 1013.2 - 0.0
26/10:00pm 26.9 30.3 24.7 88 1.5 SE 15 22 8 12 1013.2 - 0.0
26/09:30pm 27.1 30.1 24.7 87 1.7 SE 17 22 9 12 1013.4 - 0.0
26/09:00pm 27.3 30.5 24.9 87 1.7 SE 17 24 9 13 1013.3 1013.3 0.0
26/08:30pm 27.3 30.2 25.1 88 1.5 SE 19 26 10 14 1013.0 - 0.0
26/08:00pm 27.4 30.6 25.0 87 1.7 SE 17 24 9 13 1012.8 - 0.0
26/07:30pm 27.6 30.3 24.8 85 2.0 ESE 19 24 10 13 1012.5 - 0.0
26/07:00pm 27.7 30.6 24.5 83 2.2 ESE 17 24 9 13 1012.0 - 0.0
26/06:30pm 28.0 30.8 25.0 84 2.1 ESE 19 24 10 13 1011.5 - 0.0
26/06:00pm 28.3 30.8 24.5 80 2.6 ESE 19 26 10 14 1011.1 1011.1 0.0
26/05:30pm 28.7 30.8 24.7 79 2.8 ESE 22 28 12 15 1010.8 - 0.0
26/05:00pm 28.9 31.0 24.7 78 2.9 ESE 22 30 12 16 1010.6 - 0.0
26/04:30pm 29.5 31.7 24.8 76 3.3 ESE 22 28 12 15 1010.5 - 0.0
26/04:00pm 29.6 31.1 24.9 76 3.3 E 26 35 14 19 1010.5 - 0.0
26/03:30pm 29.7 31.0 24.6 74 3.6 E 26 35 14 19 1010.6 - 0.0
26/03:00pm 30.2 32.4 24.8 73 3.8 E 22 28 12 15 1010.9 1010.9 0.0
26/02:30pm 29.8 31.3 24.4 73 3.8 E 24 33 13 18 1011.2 - 0.0
26/02:00pm 30.0 32.2 24.9 74 3.6 E 22 30 12 16 1011.7 - 0.0
26/01:30pm 30.3 33.1 25.8 77 3.2 E 22 30 12 16 1012.0 - 0.0
26/01:00pm 29.9 32.1 24.8 74 3.6 E 22 30 12 16 1012.4 - 0.0
26/12:30pm 30.0 32.0 24.6 73 3.8 E 22 30 12 16 1012.8 - 0.0
26/12:00pm 30.3 32.1 24.9 73 3.8 E 24 30 13 16 1013.2 1013.2 0.0
26/11:30am 29.9 31.6 24.1 71 4.0 ESE 22 30 12 16 1013.5 - 0.0
26/11:00am 29.7 32.4 25.0 76 3.3 E 20 28 11 15 1013.9 - 0.0
26/10:42am 29.9 32.6 25.0 75 3.4 ESE 20 28 11 15 1014.1 - 0.0
26/10:30am 29.8 32.5 24.7 74 3.6 ESE 19 24 10 13 1014.1 - 0.0
26/10:16am 30.0 33.0 25.5 77 3.2 ESE 20 28 11 15 1014.1 - 0.0
26/10:00am 29.3 31.6 24.4 75 3.4 ESE 20 26 11 14 1014.2 - 0.0
26/09:30am 29.5 32.2 24.8 76 3.3 ESE 19 24 10 13 1014.1 - 0.0
26/09:00am 29.1 32.3 24.4 76 3.3 E 15 19 8 10 1013.9 1013.9 0.0
26/08:30am 28.7 32.0 24.5 78 2.9 E 15 19 8 10 1013.7 - 0.0
26/08:00am 28.4 32.4 25.0 82 2.4 E 13 19 7 10 1013.4 - 0.0
26/07:48am 27.6 31.0 24.6 84 2.1 E 15 20 8 11 1013.2 - 0.0
26/07:30am 27.7 31.2 24.9 85 2.0 E 15 22 8 12 1013.1 - 0.0
26/07:19am 27.5 31.9 25.1 87 1.7 E 11 15 6 8 1013.0 - 0.0
26/07:15am 27.5 32.1 25.3 88 1.5 ESE 11 15 6 8 1012.9 - 0.0
26/07:00am 27.4 31.4 25.0 87 1.7 ESE 13 19 7 10 1012.7 - 0.0
26/06:38am 27.3 30.8 24.9 87 1.7 ESE 15 20 8 11 1012.4 - 0.0
26/06:31am 27.3 31.2 24.9 87 1.7 E 13 19 7 10 1012.3 - 0.0
26/06:30am 27.3 31.6 24.9 87 1.7 E 11 19 6 10 1012.3 - 0.0
26/06:00am 27.3 30.7 24.7 86 1.8 ESE 15 19 8 10 1012.2 1012.2 0.0
26/05:53am 27.3 31.1 24.7 86 1.8 ESE 13 19 7 10 1012.2 - 0.0
26/05:30am 27.2 30.9 24.6 86 1.8 ESE 13 19 7 10 1012.0 - 0.0
26/05:15am 27.3 30.7 24.7 86 1.8 ESE 15 20 8 11 1011.9 - 0.0
26/05:00am 27.3 30.7 24.7 86 1.8 ESE 15 20 8 11 1011.8 - 0.0
26/04:39am 27.0 32.1 25.0 89 1.4 ESE 7 9 4 5 1011.9 - 0.0
26/04:30am 26.9 31.5 24.7 88 1.5 ESE 9 13 5 7 1011.8 - 0.0
26/04:02am 27.1 30.9 24.7 87 1.7 ESE 13 20 7 11 1011.8 - 0.0
26/04:00am 27.1 30.9 24.7 87 1.7 ESE 13 20 7 11 1011.8 - 0.0
26/03:32am 27.2 30.9 24.6 86 1.8 ESE 13 17 7 9 1011.5 - 0.0
26/03:30am 27.1 30.8 24.6 86 1.7 ESE 13 17 7 9 1011.5 - 0.0
26/03:11am 27.2 30.9 24.6 86 1.8 ESE 13 20 7 11 1011.6 - 0.0
26/03:00am 27.3 30.7 24.7 86 1.8 ESE 15 19 8 10 1011.6 1011.6 0.0
26/02:35am 27.4 30.4 24.7 85 1.9 ESE 17 22 9 12 1011.7 - 0.0
26/02:30am 27.4 30.4 24.7 85 1.9 ESE 17 24 9 13 1011.7 - 0.0
26/02:00am 27.6 30.2 24.6 84 2.1 ESE 19 26 10 14 1012.0 - 0.0
26/01:52am 27.5 30.0 24.5 84 2.1 ESE 19 28 10 15 1012.0 - 0.0
26/01:30am 27.4 31.3 24.8 86 1.8 ESE 13 17 7 9 1012.1 - 0.0
26/01:00am 27.6 30.3 24.8 85 2.0 ESE 19 26 10 14 1012.4 - 0.0
26/12:30am 27.5 31.0 24.9 86 1.8 ESE 15 22 8 12 1012.4 - 0.0
26/12:12am 27.4 30.9 24.8 86 1.8 ESE 15 20 8 11 1012.4 - 0.0
26/12:00am 27.5 30.5 24.7 85 1.9 ESE 17 26 9 14 1012.4 1012.4 0.0
 
Date/Time
EST
Temp
°C
App
Temp
°C
Dew
Point
Rel
Hum
%
Delta-T
°C
Wind Press
QNH
hPa
Press
MSL
hPa
Rain
since 9 am
mm
Dir
 
Spd
km/h
Gust
km/h
Spd
kts
Gust
kts
25/11:30pm 27.4 30.4 24.7 85 1.9 ESE 17 20 9 11 1012.5 - 0.0
25/11:00pm 27.3 30.7 24.7 86 1.8 ESE 15 22 8 12 1012.6 - 0.0
25/10:45pm 27.4 30.9 24.8 86 1.8 ESE 15 20 8 11 1012.6 - 0.0
25/10:30pm 27.3 30.3 24.7 86 1.8 ESE 17 22 9 12 1012.7 - 0.0
25/10:00pm 27.4 30.9 24.8 86 1.8 ESE 15 22 8 12 1012.6 - 0.0
25/09:45pm 27.5 30.7 24.9 86 1.8 ESE 17 26 9 14 1012.5 - 0.0
25/09:30pm 27.5 30.2 24.7 85 1.9 ESE 19 26 10 14 1012.4 - 0.0
25/09:00pm 27.6 30.0 24.6 84 2.1 ESE 20 30 11 16 1012.2 1012.2 0.0
25/08:30pm 27.6 30.2 24.6 84 2.1 ESE 19 24 10 13 1012.1 - 0.0
25/08:00pm 27.5 30.0 24.5 84 2.1 ESE 19 24 10 13 1011.8 - 0.0
25/07:30pm 27.5 30.4 24.5 84 2.1 ESE 17 22 9 12 1011.5 - 0.0
25/07:00pm 27.5 30.4 24.5 84 2.1 ESE 17 22 9 12 1011.2 - 0.0
25/06:30pm 27.7 30.6 24.5 83 2.2 E 17 24 9 13 1011.2 - 0.0
25/06:00pm 27.9 30.8 24.5 82 2.4 E 17 28 9 15 1010.9 1010.9 0.0
25/05:30pm 28.3 30.5 24.3 79 2.8 E 20 28 11 15 1010.3 - 0.0
25/05:00pm 28.6 30.5 24.4 78 2.9 ESE 22 30 12 16 1010.1 - 0.0
25/04:30pm 29.1 31.5 24.6 76 3.1 ESE 20 28 11 15 1010.1 - 0.0
25/04:00pm 29.4 31.6 24.9 77 3.2 ESE 22 33 12 18 1010.0 - 0.0
25/03:30pm 29.2 30.2 24.1 74 3.5 E 26 32 14 17 1010.2 - 0.0
25/03:00pm 29.2 30.5 24.1 74 3.5 ESE 24 33 13 18 1010.4 1010.4 0.0
25/02:30pm 29.5 31.2 24.6 75 3.4 E 24 32 13 17 1010.7 - 0.0
25/02:00pm 29.5 30.6 25.0 77 3.2 E 28 35 15 19 1011.0 - 0.0
25/01:30pm 29.5 31.3 24.8 76 3.3 E 24 32 13 17 1011.4 - 0.0
25/01:00pm 29.8 31.8 25.1 76 3.3 ESE 24 33 13 18 1011.9 - 0.0
25/12:30pm 29.7 31.1 25.4 78 3.0 E 28 35 15 19 1012.4 - 0.0
25/12:00pm 29.9 32.0 25.4 77 3.2 E 24 32 13 17 1012.7 1012.7 0.0
25/11:30am 28.9 30.2 24.7 78 2.9 E 26 33 14 18 1013.0 - 0.0
25/11:00am 29.5 31.4 25.0 77 3.2 ESE 24 30 13 16 1013.4 - 0.0
25/10:32am 29.2 31.5 25.0 78 2.9 E 22 33 12 18 1013.6 - 0.0
25/10:30am 29.2 31.6 25.2 79 2.8 E 22 33 12 18 1013.6 - 0.0
25/10:00am 28.9 31.1 25.5 82 2.4 E 24 33 13 18 1013.5 - 0.0
25/09:30am 28.4 30.9 25.4 84 2.1 E 22 33 12 18 1013.5 - 0.0
25/09:00am 27.5 30.3 25.3 88 1.5 ESE 20 28 11 15 1013.4 1013.4 0.0
25/08:56am 27.4 29.8 25.2 88 1.5 ESE 22 28 12 15 1013.3 - 0.0
25/08:30am 27.4 30.4 25.2 88 1.5 ESE 19 30 10 16 1013.1 - 0.0
25/08:00am 26.9 29.4 24.7 88 1.5 ESE 20 30 11 16 1012.6 - 0.0
25/07:30am 26.6 30.3 25.2 92 1.0 ESE 15 22 8 12 1012.3 - 0.0
25/07:00am 26.3 30.7 25.1 93 0.8 ESE 11 15 6 8 1011.9 - 0.0
25/06:30am 26.3 30.2 24.9 92 1.0 ESE 13 19 7 10 1011.6 - 0.0
25/06:00am 26.6 30.3 25.2 92 1.0 SSE 15 20 8 11 1011.5 1011.5 0.0
25/05:51am 26.6 30.7 25.2 92 1.0 SSE 13 17 7 9 1011.5 - 0.0
25/05:37am 26.8 30.4 25.0 90 1.3 SE 15 22 8 12 1011.4 - 0.0
25/05:30am 26.8 30.4 25.0 90 1.3 SE 15 22 8 12 1011.2 - 0.0
25/05:00am 26.8 30.4 25.0 90 1.3 SE 15 20 8 11 1011.3 - 0.0
25/04:40am 26.8 30.4 25.0 90 1.3 ESE 15 19 8 10 1011.0 - 0.0
25/04:30am 26.8 30.9 25.2 91 1.1 ESE 13 19 7 10 1010.9 - 0.0
25/04:00am 26.8 31.4 25.4 92 1.0 ESE 11 15 6 8 1010.9 - 0.0
25/03:42am 26.7 31.3 25.3 92 1.0 ESE 11 13 6 7 1011.1 - 0.0
25/03:30am 26.7 31.3 25.3 92 1.0 SE 11 15 6 8 1011.2 - 0.0
25/03:00am 26.6 30.8 25.4 93 0.8 ESE 13 17 7 9 1011.2 1011.2 0.0
25/02:30am 26.4 31.1 25.0 92 1.0 SE 9 13 5 7 1011.7 - 0.0
25/02:21am 26.5 31.4 25.3 93 0.8 ESE 9 11 5 6 1011.7 - 0.0
25/02:00am 26.7 31.9 25.1 91 1.1 ESE 7 9 4 5 1012.0 - 0.0
25/01:30am 26.8 31.3 25.2 91 1.1 SE 11 15 6 8 1012.4 - 0.0
25/01:18am 26.8 31.3 25.2 91 1.1 SE 11 17 6 9 1012.4 - 0.0
25/01:00am 26.8 31.7 25.2 91 1.1 SE 9 15 5 8 1012.5 - 0.0
25/12:30am 26.8 31.7 25.2 91 1.1 SSE 9 13 5 7 1012.6 - 0.0
25/12:00am 26.9 30.9 25.1 90 1.3 SE 13 19 7 10 1012.9 1012.9 0.0
 
Date/Time
EST
Temp
°C
App
Temp
°C
Dew
Point
Rel
Hum
%
Delta-T
°C
Wind Press
QNH
hPa
Press
MSL
hPa
Rain
since 9 am
mm
Dir
 
Spd
km/h
Gust
km/h
Spd
kts
Gust
kts
24/11:30pm 27.0 30.6 25.0 89 1.4 SSE 15 20 8 11 1013.3 - 0.0
24/11:00pm 26.9 31.2 24.9 89 1.4 SSE 11 17 6 9 1013.2 - 0.0
24/10:30pm 26.9 31.1 24.7 88 1.5 SSE 11 17 6 9 1012.9 - 0.0
24/10:00pm 26.9 31.6 24.9 89 1.4 SE 9 13 5 7 1013.1 - 0.0
24/09:30pm 27.1 31.0 24.9 88 1.5 SE 13 19 7 10 1013.0 - 0.0
24/09:06pm 27.2 30.3 24.8 87 1.7 ESE 17 24 9 13 1012.6 - 0.0
24/09:00pm 27.2 30.2 24.6 86 1.8 SE 17 24 9 13 1012.6 1012.6 0.0
24/08:35pm 27.3 30.7 24.7 86 1.8 SE 15 20 8 11 1012.5 - 0.0
24/08:30pm 27.3 30.7 24.7 86 1.8 SE 15 20 8 11 1012.5 - 0.0
24/08:00pm 27.4 30.3 24.5 84 2.0 SE 17 22 9 12 1012.2 - 0.0
24/07:30pm 27.6 30.5 24.4 83 2.2 SE 17 22 9 12 1011.6 - 0.0
24/07:00pm 27.7 30.1 24.3 82 2.4 ESE 19 26 10 14 1011.1 - 0.0
24/06:30pm 27.8 30.2 24.2 81 2.5 ESE 19 24 10 13 1010.7 - 0.0
24/06:00pm 28.0 29.8 24.2 80 2.6 ESE 22 28 12 15 1010.5 1010.5 0.0
24/05:30pm 28.7 31.2 24.5 78 2.9 ESE 19 26 10 14 1010.3 - 0.0
24/05:00pm 29.0 31.4 24.6 77 3.1 E 20 28 11 15 1010.2 - 0.0
24/04:30pm 29.2 31.0 24.3 75 3.4 ESE 22 32 12 17 1009.9 - 0.0
24/04:00pm 28.9 30.3 24.2 76 3.3 ESE 24 30 13 16 1009.9 - 0.0
24/03:30pm 28.7 30.4 24.7 79 2.8 ESE 24 32 13 17 1009.9 - 0.0
24/03:00pm 29.1 30.4 25.3 80 2.7 ESE 28 37 15 20 1010.0 1010.0 0.0
24/02:30pm 29.4 31.4 25.2 78 3.0 ESE 24 32 13 17 1009.9 - 0.0
24/02:00pm 29.1 30.6 24.9 78 2.9 ESE 26 33 14 18 1010.3 - 0.0
24/01:30pm 28.4 30.8 25.2 83 2.2 ESE 22 30 12 16 1010.9 - 0.0
24/01:00pm 28.9 32.0 25.7 83 2.3 ESE 20 24 11 13 1011.7 - 0.0
24/12:30pm 29.1 31.3 25.5 81 2.5 E 24 33 13 18 1012.3 - 0.0
24/12:01pm 28.3 31.8 25.5 85 2.0 E 17 22 9 12 1012.7 - 0.0
24/12:00pm 28.3 32.1 25.9 87 1.7 E 17 22 9 12 1012.7 1012.7 0.0
24/11:49am 27.9 30.7 25.3 86 1.8 E 20 28 11 15 1012.9 - 0.0
24/11:30am 29.3 32.3 25.5 80 2.7 E 20 28 11 15 1013.0 - 0.0
24/11:00am 28.6 31.1 25.4 83 2.3 E 22 32 12 17 1013.6 - 0.0
24/10:30am 29.4 31.1 24.7 76 3.3 E 24 35 13 19 1013.7 - 0.0
24/10:00am 28.7 30.2 24.3 77 3.1 E 24 30 13 16 1014.0 - 0.0
24/09:30am 28.9 30.7 24.9 79 2.8 E 24 33 13 18 1013.7 - 0.0
24/09:00am 28.2 29.5 24.6 81 2.5 E 26 33 14 18 1013.2 1013.2 12.2
24/08:48am 28.3 30.9 24.9 82 2.4 E 20 30 11 16 1013.1 - 12.2
24/08:38am 27.9 30.6 24.7 83 2.2 E 19 28 10 15 1013.0 - 12.2
24/08:30am 27.8 30.2 24.6 83 2.2 E 20 33 11 18 1012.9 - 12.2
24/08:00am 28.1 30.3 24.9 83 2.2 E 22 28 12 15 1012.7 - 12.2
24/07:30am 27.1 29.7 24.9 88 1.5 E 20 33 11 18 1012.7 - 12.2
24/07:00am 26.8 29.1 24.5 87 1.6 E 20 28 11 15 1012.3 - 12.2
24/06:30am 26.5 29.0 24.7 90 1.2 E 20 28 11 15 1012.1 - 12.2
24/06:00am 26.2 28.7 24.4 90 1.2 E 19 26 10 14 1011.7 1011.7 12.2
24/05:42am 26.2 29.4 25.0 93 0.8 E 17 24 9 13 1011.7 - 12.2
24/05:30am 26.2 28.1 25.0 93 0.8 E 24 32 13 17 1011.4 - 12.2
24/05:28am 26.2 28.1 25.0 93 0.8 E 24 32 13 17 1011.4 - 12.2
24/05:08am 26.5 29.0 25.3 93 0.8 E 22 30 12 16 1011.3 - 11.6
24/05:00am 27.3 29.1 24.9 87 1.7 E 24 33 13 18 1011.3 - 11.4

Other Formats:

Comma delimited format used in spreadsheet applications
http://www.bom.gov.au/fwo/IDQ60801/IDQ60801.94174.axf

JavaScript Object Notation format (JSON) in row-major order
http://www.bom.gov.au/fwo/IDQ60801/IDQ60801.94174.json